sensor_id;sensor_type;location;lat;lon;timestamp;P1;durP1;ratioP1;P2;durP2;ratioP2
59306;SDS011;47983;53.016;-2.260;2023-05-14T00:00:43;31.98;;;18.13;;
59306;SDS011;47983;53.016;-2.260;2023-05-14T00:03:14;31.70;;;16.27;;
59306;SDS011;47983;53.016;-2.260;2023-05-14T00:05:42;27.55;;;17.10;;
59306;SDS011;47983;53.016;-2.260;2023-05-14T00:08:10;26.48;;;16.50;;
59306;SDS011;47983;53.016;-2.260;2023-05-14T00:10:38;27.23;;;17.02;;
59306;SDS011;47983;53.016;-2.260;2023-05-14T00:13:06;33.15;;;17.17;;
59306;SDS011;47983;53.016;-2.260;2023-05-14T00:15:38;28.55;;;16.90;;
59306;SDS011;47983;53.016;-2.260;2023-05-14T00:18:08;27.90;;;16.48;;
59306;SDS011;47983;53.016;-2.260;2023-05-14T00:20:39;27.42;;;16.20;;
59306;SDS011;47983;53.016;-2.260;2023-05-14T00:23:08;32.28;;;16.83;;
59306;SDS011;47983;53.016;-2.260;2023-05-14T00:25:36;32.70;;;18.52;;
59306;SDS011;47983;53.016;-2.260;2023-05-14T00:28:03;30.23;;;17.83;;
59306;SDS011;47983;53.016;-2.260;2023-05-14T00:30:32;30.48;;;18.48;;
59306;SDS011;47983;53.016;-2.260;2023-05-14T00:32:59;30.10;;;18.00;;
59306;SDS011;47983;53.016;-2.260;2023-05-14T00:35:27;28.77;;;16.58;;
59306;SDS011;47983;53.016;-2.260;2023-05-14T00:37:55;38.30;;;19.27;;
59306;SDS011;47983;53.016;-2.260;2023-05-14T00:40:24;36.08;;;19.42;;
59306;SDS011;47983;53.016;-2.260;2023-05-14T00:42:54;28.85;;;18.23;;
59306;SDS011;47983;53.016;-2.260;2023-05-14T00:45:26;38.85;;;19.80;;
59306;SDS011;47983;53.016;-2.260;2023-05-14T00:47:57;32.90;;;19.83;;
59306;SDS011;47983;53.016;-2.260;2023-05-14T00:50:25;30.30;;;17.63;;
59306;SDS011;47983;53.016;-2.260;2023-05-14T00:52:53;33.45;;;18.00;;
59306;SDS011;47983;53.016;-2.260;2023-05-14T00:55:24;30.75;;;17.80;;
59306;SDS011;47983;53.016;-2.260;2023-05-14T00:57:52;30.92;;;17.92;;
59306;SDS011;47983;53.016;-2.260;2023-05-14T01:00:21;32.33;;;19.65;;
59306;SDS011;47983;53.016;-2.260;2023-05-14T01:02:50;30.10;;;18.48;;
59306;SDS011;47983;53.016;-2.260;2023-05-14T01:05:18;33.40;;;18.80;;
59306;SDS011;47983;53.016;-2.260;2023-05-14T01:10:34;34.85;;;18.77;;
59306;SDS011;47983;53.016;-2.260;2023-05-14T01:13:22;32.42;;;18.20;;
59306;SDS011;47983;53.016;-2.260;2023-05-14T01:15:56;29.30;;;17.23;;
59306;SDS011;47983;53.016;-2.260;2023-05-14T01:18:26;30.52;;;17.83;;
59306;SDS011;47983;53.016;-2.260;2023-05-14T01:20:55;31.70;;;17.52;;
59306;SDS011;47983;53.016;-2.260;2023-05-14T01:23:23;30.85;;;17.35;;
59306;SDS011;47983;53.016;-2.260;2023-05-14T01:25:51;31.35;;;18.75;;
59306;SDS011;47983;53.016;-2.260;2023-05-14T01:28:20;37.42;;;18.35;;
59306;SDS011;47983;53.016;-2.260;2023-05-14T01:30:56;33.03;;;18.75;;
59306;SDS011;47983;53.016;-2.260;2023-05-14T01:33:31;34.58;;;19.02;;
59306;SDS011;47983;53.016;-2.260;2023-05-14T01:36:01;30.80;;;18.00;;
59306;SDS011;47983;53.016;-2.260;2023-05-14T01:38:30;34.25;;;18.15;;
59306;SDS011;47983;53.016;-2.260;2023-05-14T01:41:01;32.53;;;18.75;;
59306;SDS011;47983;53.016;-2.260;2023-05-14T01:43:31;36.20;;;17.95;;
59306;SDS011;47983;53.016;-2.260;2023-05-14T01:46:00;35.00;;;19.57;;
59306;SDS011;47983;53.016;-2.260;2023-05-14T01:48:28;30.52;;;17.88;;
59306;SDS011;47983;53.016;-2.260;2023-05-14T01:50:56;38.25;;;19.70;;
59306;SDS011;47983;53.016;-2.260;2023-05-14T01:53:26;35.97;;;18.88;;
59306;SDS011;47983;53.016;-2.260;2023-05-14T01:55:55;34.97;;;18.38;;
59306;SDS011;47983;53.016;-2.260;2023-05-14T01:58:24;35.00;;;18.92;;
59306;SDS011;47983;53.016;-2.260;2023-05-14T02:00:52;33.85;;;19.90;;
59306;SDS011;47983;53.016;-2.260;2023-05-14T02:03:20;34.20;;;18.13;;
59306;SDS011;47983;53.016;-2.260;2023-05-14T02:05:48;34.72;;;20.08;;
59306;SDS011;47983;53.016;-2.260;2023-05-14T02:08:16;34.08;;;18.67;;
59306;SDS011;47983;53.016;-2.260;2023-05-14T02:10:44;34.63;;;19.60;;
59306;SDS011;47983;53.016;-2.260;2023-05-14T02:13:15;33.75;;;18.20;;
59306;SDS011;47983;53.016;-2.260;2023-05-14T02:15:43;37.55;;;20.58;;
59306;SDS011;47983;53.016;-2.260;2023-05-14T02:18:11;37.25;;;20.30;;
59306;SDS011;47983;53.016;-2.260;2023-05-14T02:20:39;35.85;;;20.27;;
59306;SDS011;47983;53.016;-2.260;2023-05-14T02:23:07;34.33;;;19.00;;
59306;SDS011;47983;53.016;-2.260;2023-05-14T02:25:36;33.25;;;18.67;;
59306;SDS011;47983;53.016;-2.260;2023-05-14T02:28:04;35.45;;;20.73;;
59306;SDS011;47983;53.016;-2.260;2023-05-14T02:30:31;38.47;;;19.70;;
59306;SDS011;47983;53.016;-2.260;2023-05-14T02:32:59;38.80;;;20.10;;
59306;SDS011;47983;53.016;-2.260;2023-05-14T02:35:27;33.50;;;19.83;;
59306;SDS011;47983;53.016;-2.260;2023-05-14T02:37:55;47.60;;;22.50;;
59306;SDS011;47983;53.016;-2.260;2023-05-14T02:40:23;37.35;;;20.63;;
59306;SDS011;47983;53.016;-2.260;2023-05-14T02:42:51;37.58;;;20.05;;
59306;SDS011;47983;53.016;-2.260;2023-05-14T02:45:19;40.47;;;20.52;;
59306;SDS011;47983;53.016;-2.260;2023-05-14T02:47:47;34.25;;;19.67;;
59306;SDS011;47983;53.016;-2.260;2023-05-14T02:50:15;35.28;;;19.95;;
59306;SDS011;47983;53.016;-2.260;2023-05-14T02:52:43;37.03;;;20.25;;
59306;SDS011;47983;53.016;-2.260;2023-05-14T02:55:14;35.78;;;20.33;;
59306;SDS011;47983;53.016;-2.260;2023-05-14T02:57:42;39.90;;;21.42;;
59306;SDS011;47983;53.016;-2.260;2023-05-14T03:00:10;37.45;;;20.67;;
59306;SDS011;47983;53.016;-2.260;2023-05-14T03:02:39;39.65;;;20.85;;
59306;SDS011;47983;53.016;-2.260;2023-05-14T03:05:07;39.45;;;22.10;;
59306;SDS011;47983;53.016;-2.260;2023-05-14T03:07:36;37.45;;;21.65;;
59306;SDS011;47983;53.016;-2.260;2023-05-14T03:10:04;44.80;;;22.13;;
59306;SDS011;47983;53.016;-2.260;2023-05-14T03:12:32;45.63;;;22.85;;
59306;SDS011;47983;53.016;-2.260;2023-05-14T03:15:00;48.33;;;24.00;;
59306;SDS011;47983;53.016;-2.260;2023-05-14T03:17:28;45.00;;;24.75;;
59306;SDS011;47983;53.016;-2.260;2023-05-14T03:19:56;45.28;;;23.38;;
59306;SDS011;47983;53.016;-2.260;2023-05-14T03:22:23;52.25;;;25.58;;
59306;SDS011;47983;53.016;-2.260;2023-05-14T03:24:51;48.72;;;26.02;;
59306;SDS011;47983;53.016;-2.260;2023-05-14T03:27:20;48.83;;;25.85;;
59306;SDS011;47983;53.016;-2.260;2023-05-14T03:29:47;48.78;;;25.42;;
59306;SDS011;47983;53.016;-2.260;2023-05-14T03:32:16;45.40;;;25.10;;
59306;SDS011;47983;53.016;-2.260;2023-05-14T03:34:45;49.00;;;24.55;;
59306;SDS011;47983;53.016;-2.260;2023-05-14T03:37:13;44.63;;;23.95;;
59306;SDS011;47983;53.016;-2.260;2023-05-14T03:39:41;45.65;;;25.08;;
59306;SDS011;47983;53.016;-2.260;2023-05-14T03:42:09;49.13;;;24.63;;
59306;SDS011;47983;53.016;-2.260;2023-05-14T03:44:37;48.30;;;25.67;;
59306;SDS011;47983;53.016;-2.260;2023-05-14T03:47:05;51.05;;;25.80;;
59306;SDS011;47983;53.016;-2.260;2023-05-14T03:49:33;52.35;;;26.45;;
59306;SDS011;47983;53.016;-2.260;2023-05-14T03:52:01;54.33;;;25.63;;
59306;SDS011;47983;53.016;-2.260;2023-05-14T03:54:29;50.83;;;26.05;;
59306;SDS011;47983;53.016;-2.260;2023-05-14T03:56:59;53.13;;;24.20;;
59306;SDS011;47983;53.016;-2.260;2023-05-14T03:59:28;47.17;;;23.08;;
59306;SDS011;47983;53.016;-2.260;2023-05-14T04:01:56;50.30;;;24.95;;
59306;SDS011;47983;53.016;-2.260;2023-05-14T04:04:25;50.38;;;24.77;;
59306;SDS011;47983;53.016;-2.260;2023-05-14T04:06:53;50.92;;;26.13;;
59306;SDS011;47983;53.016;-2.260;2023-05-14T04:09:20;46.10;;;24.15;;
59306;SDS011;47983;53.016;-2.260;2023-05-14T04:11:50;50.92;;;26.10;;
59306;SDS011;47983;53.016;-2.260;2023-05-14T04:14:18;50.88;;;25.25;;
59306;SDS011;47983;53.016;-2.260;2023-05-14T04:16:47;46.85;;;24.08;;
59306;SDS011;47983;53.016;-2.260;2023-05-14T04:19:15;49.20;;;23.88;;
59306;SDS011;47983;53.016;-2.260;2023-05-14T04:21:45;45.75;;;23.60;;
59306;SDS011;47983;53.016;-2.260;2023-05-14T04:24:15;46.85;;;23.40;;
59306;SDS011;47983;53.016;-2.260;2023-05-14T04:26:45;48.85;;;23.70;;
59306;SDS011;47983;53.016;-2.260;2023-05-14T04:29:16;43.97;;;22.20;;
59306;SDS011;47983;53.016;-2.260;2023-05-14T04:31:43;45.28;;;22.63;;
59306;SDS011;47983;53.016;-2.260;2023-05-14T04:34:12;43.30;;;23.33;;
59306;SDS011;47983;53.016;-2.260;2023-05-14T04:36:40;47.38;;;22.83;;
59306;SDS011;47983;53.016;-2.260;2023-05-14T04:39:08;49.08;;;24.88;;
59306;SDS011;47983;53.016;-2.260;2023-05-14T04:44:05;43.00;;;22.40;;
59306;SDS011;47983;53.016;-2.260;2023-05-14T04:46:34;43.72;;;23.65;;
59306;SDS011;47983;53.016;-2.260;2023-05-14T04:49:02;52.03;;;24.52;;
59306;SDS011;47983;53.016;-2.260;2023-05-14T04:51:30;49.75;;;24.45;;
59306;SDS011;47983;53.016;-2.260;2023-05-14T04:53:59;43.10;;;22.75;;
59306;SDS011;47983;53.016;-2.260;2023-05-14T04:56:26;51.33;;;25.42;;
59306;SDS011;47983;53.016;-2.260;2023-05-14T04:58:54;46.97;;;24.55;;
59306;SDS011;47983;53.016;-2.260;2023-05-14T05:01:22;49.08;;;24.48;;
59306;SDS011;47983;53.016;-2.260;2023-05-14T05:03:50;48.72;;;25.02;;
59306;SDS011;47983;53.016;-2.260;2023-05-14T05:06:19;52.45;;;24.75;;
59306;SDS011;47983;53.016;-2.260;2023-05-14T05:08:46;51.88;;;25.15;;
59306;SDS011;47983;53.016;-2.260;2023-05-14T05:11:16;51.13;;;24.95;;
59306;SDS011;47983;53.016;-2.260;2023-05-14T05:13:44;45.63;;;24.08;;
59306;SDS011;47983;53.016;-2.260;2023-05-14T05:16:12;41.75;;;23.08;;
59306;SDS011;47983;53.016;-2.260;2023-05-14T05:18:40;47.28;;;23.90;;
59306;SDS011;47983;53.016;-2.260;2023-05-14T05:21:07;53.42;;;24.23;;
59306;SDS011;47983;53.016;-2.260;2023-05-14T05:23:35;47.38;;;24.15;;
59306;SDS011;47983;53.016;-2.260;2023-05-14T05:26:03;41.83;;;24.35;;
59306;SDS011;47983;53.016;-2.260;2023-05-14T05:28:31;49.63;;;23.85;;
59306;SDS011;47983;53.016;-2.260;2023-05-14T05:30:59;44.60;;;24.00;;
59306;SDS011;47983;53.016;-2.260;2023-05-14T05:33:27;45.78;;;25.05;;
59306;SDS011;47983;53.016;-2.260;2023-05-14T05:35:55;47.95;;;25.80;;
59306;SDS011;47983;53.016;-2.260;2023-05-14T05:38:23;43.97;;;22.85;;
59306;SDS011;47983;53.016;-2.260;2023-05-14T05:40:51;48.70;;;23.85;;
59306;SDS011;47983;53.016;-2.260;2023-05-14T05:43:19;47.42;;;24.15;;
59306;SDS011;47983;53.016;-2.260;2023-05-14T05:45:47;46.17;;;23.98;;
59306;SDS011;47983;53.016;-2.260;2023-05-14T05:48:16;47.55;;;23.92;;
59306;SDS011;47983;53.016;-2.260;2023-05-14T05:50:45;46.58;;;23.98;;
59306;SDS011;47983;53.016;-2.260;2023-05-14T05:53:16;50.80;;;25.67;;
59306;SDS011;47983;53.016;-2.260;2023-05-14T05:55:44;45.95;;;24.80;;
59306;SDS011;47983;53.016;-2.260;2023-05-14T05:58:12;47.30;;;23.23;;
59306;SDS011;47983;53.016;-2.260;2023-05-14T06:00:41;46.30;;;24.40;;
59306;SDS011;47983;53.016;-2.260;2023-05-14T06:03:09;45.78;;;24.08;;
59306;SDS011;47983;53.016;-2.260;2023-05-14T06:05:37;43.78;;;24.40;;
59306;SDS011;47983;53.016;-2.260;2023-05-14T06:08:06;47.88;;;24.48;;
59306;SDS011;47983;53.016;-2.260;2023-05-14T06:10:37;46.38;;;25.02;;
59306;SDS011;47983;53.016;-2.260;2023-05-14T06:13:04;46.28;;;24.17;;
59306;SDS011;47983;53.016;-2.260;2023-05-14T06:15:33;46.50;;;23.63;;
59306;SDS011;47983;53.016;-2.260;2023-05-14T06:18:01;46.28;;;23.50;;
59306;SDS011;47983;53.016;-2.260;2023-05-14T06:20:29;47.58;;;25.17;;
59306;SDS011;47983;53.016;-2.260;2023-05-14T06:22:58;47.75;;;24.17;;
59306;SDS011;47983;53.016;-2.260;2023-05-14T06:25:25;42.28;;;23.23;;
59306;SDS011;47983;53.016;-2.260;2023-05-14T06:27:53;44.28;;;24.45;;
59306;SDS011;47983;53.016;-2.260;2023-05-14T06:30:22;45.97;;;24.52;;
59306;SDS011;47983;53.016;-2.260;2023-05-14T06:32:52;45.22;;;23.45;;
59306;SDS011;47983;53.016;-2.260;2023-05-14T06:35:20;47.95;;;23.60;;
59306;SDS011;47983;53.016;-2.260;2023-05-14T06:37:48;39.63;;;22.63;;
59306;SDS011;47983;53.016;-2.260;2023-05-14T06:40:16;42.38;;;23.33;;
59306;SDS011;47983;53.016;-2.260;2023-05-14T06:42:45;42.78;;;23.27;;
59306;SDS011;47983;53.016;-2.260;2023-05-14T06:45:13;41.85;;;22.63;;
59306;SDS011;47983;53.016;-2.260;2023-05-14T06:47:40;38.45;;;22.13;;
59306;SDS011;47983;53.016;-2.260;2023-05-14T06:50:09;38.15;;;21.38;;
59306;SDS011;47983;53.016;-2.260;2023-05-14T06:52:37;38.60;;;21.30;;
59306;SDS011;47983;53.016;-2.260;2023-05-14T06:55:05;38.88;;;21.98;;
59306;SDS011;47983;53.016;-2.260;2023-05-14T06:57:33;38.17;;;22.25;;
59306;SDS011;47983;53.016;-2.260;2023-05-14T07:00:02;36.17;;;20.92;;
59306;SDS011;47983;53.016;-2.260;2023-05-14T07:02:31;37.50;;;20.83;;
59306;SDS011;47983;53.016;-2.260;2023-05-14T07:04:59;42.10;;;22.83;;
59306;SDS011;47983;53.016;-2.260;2023-05-14T07:07:28;35.90;;;20.27;;
59306;SDS011;47983;53.016;-2.260;2023-05-14T07:09:56;38.45;;;22.60;;
59306;SDS011;47983;53.016;-2.260;2023-05-14T07:12:24;37.60;;;20.25;;
59306;SDS011;47983;53.016;-2.260;2023-05-14T07:14:52;39.83;;;21.60;;
59306;SDS011;47983;53.016;-2.260;2023-05-14T07:17:20;39.60;;;21.23;;
59306;SDS011;47983;53.016;-2.260;2023-05-14T07:19:48;38.05;;;22.20;;
59306;SDS011;47983;53.016;-2.260;2023-05-14T07:22:19;34.53;;;20.90;;
59306;SDS011;47983;53.016;-2.260;2023-05-14T07:24:48;38.40;;;21.27;;
59306;SDS011;47983;53.016;-2.260;2023-05-14T07:27:16;36.42;;;21.27;;
59306;SDS011;47983;53.016;-2.260;2023-05-14T07:29:44;38.13;;;22.35;;
59306;SDS011;47983;53.016;-2.260;2023-05-14T07:32:12;37.55;;;20.73;;
59306;SDS011;47983;53.016;-2.260;2023-05-14T07:34:41;32.65;;;20.60;;
59306;SDS011;47983;53.016;-2.260;2023-05-14T07:37:10;34.80;;;20.67;;
59306;SDS011;47983;53.016;-2.260;2023-05-14T07:39:37;34.42;;;20.17;;
59306;SDS011;47983;53.016;-2.260;2023-05-14T07:42:07;36.47;;;19.85;;
59306;SDS011;47983;53.016;-2.260;2023-05-14T07:44:35;34.38;;;20.13;;
59306;SDS011;47983;53.016;-2.260;2023-05-14T07:47:04;31.08;;;18.60;;
59306;SDS011;47983;53.016;-2.260;2023-05-14T07:49:35;33.00;;;18.40;;
59306;SDS011;47983;53.016;-2.260;2023-05-14T07:52:02;31.60;;;19.17;;
59306;SDS011;47983;53.016;-2.260;2023-05-14T07:54:31;31.58;;;17.98;;
59306;SDS011;47983;53.016;-2.260;2023-05-14T07:56:58;29.95;;;17.90;;
59306;SDS011;47983;53.016;-2.260;2023-05-14T07:59:26;29.98;;;17.02;;
59306;SDS011;47983;53.016;-2.260;2023-05-14T08:01:55;27.17;;;17.02;;
59306;SDS011;47983;53.016;-2.260;2023-05-14T08:04:23;26.00;;;15.32;;
59306;SDS011;47983;53.016;-2.260;2023-05-14T08:06:51;24.95;;;15.05;;
59306;SDS011;47983;53.016;-2.260;2023-05-14T08:09:19;23.40;;;14.45;;
59306;SDS011;47983;53.016;-2.260;2023-05-14T08:11:49;22.63;;;14.15;;
59306;SDS011;47983;53.016;-2.260;2023-05-14T08:14:17;25.27;;;13.00;;
59306;SDS011;47983;53.016;-2.260;2023-05-14T08:16:45;18.83;;;12.02;;
59306;SDS011;47983;53.016;-2.260;2023-05-14T08:19:15;19.45;;;12.25;;
59306;SDS011;47983;53.016;-2.260;2023-05-14T08:21:45;19.27;;;12.07;;
59306;SDS011;47983;53.016;-2.260;2023-05-14T08:24:17;19.23;;;12.02;;
59306;SDS011;47983;53.016;-2.260;2023-05-14T08:26:45;19.38;;;13.65;;
59306;SDS011;47983;53.016;-2.260;2023-05-14T08:29:13;20.42;;;12.93;;
59306;SDS011;47983;53.016;-2.260;2023-05-14T08:31:46;21.30;;;13.20;;
59306;SDS011;47983;53.016;-2.260;2023-05-14T08:34:17;23.10;;;13.80;;
59306;SDS011;47983;53.016;-2.260;2023-05-14T08:36:44;20.60;;;12.55;;
59306;SDS011;47983;53.016;-2.260;2023-05-14T08:39:12;22.75;;;13.48;;
59306;SDS011;47983;53.016;-2.260;2023-05-14T08:41:40;21.77;;;12.93;;
59306;SDS011;47983;53.016;-2.260;2023-05-14T08:44:12;23.98;;;15.25;;
59306;SDS011;47983;53.016;-2.260;2023-05-14T08:46:45;21.67;;;13.00;;
59306;SDS011;47983;53.016;-2.260;2023-05-14T08:52:10;21.13;;;12.57;;
59306;SDS011;47983;53.016;-2.260;2023-05-14T08:54:39;19.42;;;13.13;;
59306;SDS011;47983;53.016;-2.260;2023-05-14T08:57:10;18.92;;;12.48;;
59306;SDS011;47983;53.016;-2.260;2023-05-14T08:59:41;23.67;;;13.82;;
59306;SDS011;47983;53.016;-2.260;2023-05-14T09:02:09;21.80;;;13.15;;
59306;SDS011;47983;53.016;-2.260;2023-05-14T09:04:40;21.60;;;14.23;;
59306;SDS011;47983;53.016;-2.260;2023-05-14T09:07:09;20.65;;;13.35;;
59306;SDS011;47983;53.016;-2.260;2023-05-14T09:09:37;19.77;;;13.45;;
59306;SDS011;47983;53.016;-2.260;2023-05-14T09:12:06;21.60;;;13.40;;
59306;SDS011;47983;53.016;-2.260;2023-05-14T09:14:35;22.00;;;14.00;;
59306;SDS011;47983;53.016;-2.260;2023-05-14T09:17:02;23.48;;;13.70;;
59306;SDS011;47983;53.016;-2.260;2023-05-14T09:19:30;16.25;;;10.73;;
59306;SDS011;47983;53.016;-2.260;2023-05-14T09:21:59;17.10;;;11.57;;
59306;SDS011;47983;53.016;-2.260;2023-05-14T09:24:26;13.63;;;9.95;;
59306;SDS011;47983;53.016;-2.260;2023-05-14T09:26:58;15.27;;;9.93;;
59306;SDS011;47983;53.016;-2.260;2023-05-14T09:29:27;15.45;;;10.57;;
59306;SDS011;47983;53.016;-2.260;2023-05-14T09:31:56;14.93;;;10.30;;
59306;SDS011;47983;53.016;-2.260;2023-05-14T09:34:27;13.98;;;10.43;;
59306;SDS011;47983;53.016;-2.260;2023-05-14T09:39:24;14.27;;;10.00;;
59306;SDS011;47983;53.016;-2.260;2023-05-14T09:41:53;15.88;;;10.63;;
59306;SDS011;47983;53.016;-2.260;2023-05-14T09:44:22;16.33;;;10.55;;
59306;SDS011;47983;53.016;-2.260;2023-05-14T09:46:52;13.60;;;9.40;;
59306;SDS011;47983;53.016;-2.260;2023-05-14T09:49:21;14.15;;;9.52;;
59306;SDS011;47983;53.016;-2.260;2023-05-14T09:51:52;12.63;;;9.60;;
59306;SDS011;47983;53.016;-2.260;2023-05-14T09:54:20;11.57;;;7.18;;
59306;SDS011;47983;53.016;-2.260;2023-05-14T09:56:48;9.05;;;6.03;;
59306;SDS011;47983;53.016;-2.260;2023-05-14T09:59:15;8.93;;;5.68;;
59306;SDS011;47983;53.016;-2.260;2023-05-14T10:01:43;10.10;;;6.57;;
59306;SDS011;47983;53.016;-2.260;2023-05-14T10:04:12;8.32;;;6.22;;
59306;SDS011;47983;53.016;-2.260;2023-05-14T10:06:41;15.27;;;8.10;;
59306;SDS011;47983;53.016;-2.260;2023-05-14T10:09:12;8.25;;;6.55;;
59306;SDS011;47983;53.016;-2.260;2023-05-14T10:11:46;9.27;;;6.72;;
59306;SDS011;47983;53.016;-2.260;2023-05-14T10:16:55;7.00;;;4.78;;
59306;SDS011;47983;53.016;-2.260;2023-05-14T10:19:27;7.15;;;5.00;;
59306;SDS011;47983;53.016;-2.260;2023-05-14T10:22:00;9.10;;;5.65;;
59306;SDS011;47983;53.016;-2.260;2023-05-14T10:24:31;7.30;;;5.15;;
59306;SDS011;47983;53.016;-2.260;2023-05-14T10:26:59;5.30;;;4.32;;
59306;SDS011;47983;53.016;-2.260;2023-05-14T10:29:34;6.40;;;4.57;;
59306;SDS011;47983;53.016;-2.260;2023-05-14T10:32:04;7.80;;;5.53;;
59306;SDS011;47983;53.016;-2.260;2023-05-14T10:34:42;7.47;;;5.15;;
59306;SDS011;47983;53.016;-2.260;2023-05-14T10:37:11;8.70;;;6.00;;
59306;SDS011;47983;53.016;-2.260;2023-05-14T10:39:45;7.63;;;5.43;;
59306;SDS011;47983;53.016;-2.260;2023-05-14T10:42:21;5.47;;;3.97;;
59306;SDS011;47983;53.016;-2.260;2023-05-14T10:45:02;5.78;;;4.38;;
59306;SDS011;47983;53.016;-2.260;2023-05-14T10:47:34;5.72;;;3.88;;
59306;SDS011;47983;53.016;-2.260;2023-05-14T10:50:07;6.00;;;3.30;;
59306;SDS011;47983;53.016;-2.260;2023-05-14T10:52:40;4.07;;;3.03;;
59306;SDS011;47983;53.016;-2.260;2023-05-14T10:55:13;6.20;;;3.90;;
59306;SDS011;47983;53.016;-2.260;2023-05-14T10:57:45;6.07;;;4.30;;
59306;SDS011;47983;53.016;-2.260;2023-05-14T11:00:15;7.50;;;4.00;;
59306;SDS011;47983;53.016;-2.260;2023-05-14T11:02:43;6.55;;;3.80;;
59306;SDS011;47983;53.016;-2.260;2023-05-14T11:05:13;4.95;;;3.25;;
59306;SDS011;47983;53.016;-2.260;2023-05-14T11:07:44;5.95;;;5.00;;
59306;SDS011;47983;53.016;-2.260;2023-05-14T11:10:17;11.63;;;4.28;;
59306;SDS011;47983;53.016;-2.260;2023-05-14T11:12:46;9.40;;;5.93;;
59306;SDS011;47983;53.016;-2.260;2023-05-14T11:15:19;9.57;;;5.15;;
59306;SDS011;47983;53.016;-2.260;2023-05-14T11:17:48;7.05;;;4.40;;
59306;SDS011;47983;53.016;-2.260;2023-05-14T11:20:17;4.82;;;3.05;;
59306;SDS011;47983;53.016;-2.260;2023-05-14T11:22:46;4.38;;;2.50;;
59306;SDS011;47983;53.016;-2.260;2023-05-14T11:25:15;7.15;;;2.80;;
59306;SDS011;47983;53.016;-2.260;2023-05-14T11:27:49;4.70;;;3.40;;
59306;SDS011;47983;53.016;-2.260;2023-05-14T11:30:18;4.72;;;3.35;;
59306;SDS011;47983;53.016;-2.260;2023-05-14T11:32:47;6.05;;;4.00;;
59306;SDS011;47983;53.016;-2.260;2023-05-14T11:35:18;4.82;;;3.38;;
59306;SDS011;47983;53.016;-2.260;2023-05-14T11:37:49;7.53;;;4.05;;
59306;SDS011;47983;53.016;-2.260;2023-05-14T11:40:20;4.45;;;3.50;;
59306;SDS011;47983;53.016;-2.260;2023-05-14T11:42:51;6.55;;;4.07;;
59306;SDS011;47983;53.016;-2.260;2023-05-14T11:45:24;6.82;;;4.18;;
59306;SDS011;47983;53.016;-2.260;2023-05-14T11:47:56;4.55;;;3.67;;
59306;SDS011;47983;53.016;-2.260;2023-05-14T11:50:27;4.40;;;3.22;;
59306;SDS011;47983;53.016;-2.260;2023-05-14T11:52:56;3.35;;;2.60;;
59306;SDS011;47983;53.016;-2.260;2023-05-14T11:55:24;2.97;;;2.28;;
59306;SDS011;47983;53.016;-2.260;2023-05-14T11:57:52;3.22;;;2.55;;
59306;SDS011;47983;53.016;-2.260;2023-05-14T12:00:21;3.05;;;1.95;;
59306;SDS011;47983;53.016;-2.260;2023-05-14T12:02:51;4.95;;;2.80;;
59306;SDS011;47983;53.016;-2.260;2023-05-14T12:05:21;3.78;;;2.55;;
59306;SDS011;47983;53.016;-2.260;2023-05-14T12:07:49;2.72;;;2.40;;
59306;SDS011;47983;53.016;-2.260;2023-05-14T12:10:17;4.18;;;2.00;;
59306;SDS011;47983;53.016;-2.260;2023-05-14T12:12:46;2.88;;;2.13;;
59306;SDS011;47983;53.016;-2.260;2023-05-14T12:15:14;3.03;;;2.05;;
59306;SDS011;47983;53.016;-2.260;2023-05-14T12:17:49;2.17;;;1.40;;
59306;SDS011;47983;53.016;-2.260;2023-05-14T12:20:18;2.55;;;1.67;;
59306;SDS011;47983;53.016;-2.260;2023-05-14T12:22:46;2.40;;;1.60;;
59306;SDS011;47983;53.016;-2.260;2023-05-14T12:25:14;1.58;;;1.48;;
59306;SDS011;47983;53.016;-2.260;2023-05-14T12:27:43;1.40;;;1.30;;
59306;SDS011;47983;53.016;-2.260;2023-05-14T12:30:11;1.25;;;0.88;;
59306;SDS011;47983;53.016;-2.260;2023-05-14T12:32:43;2.45;;;1.08;;
59306;SDS011;47983;53.016;-2.260;2023-05-14T12:35:12;1.80;;;1.00;;
59306;SDS011;47983;53.016;-2.260;2023-05-14T12:37:40;26.25;;;7.07;;
59306;SDS011;47983;53.016;-2.260;2023-05-14T12:40:09;0.90;;;0.90;;
59306;SDS011;47983;53.016;-2.260;2023-05-14T12:42:37;0.80;;;0.80;;
59306;SDS011;47983;53.016;-2.260;2023-05-14T12:45:05;2.53;;;1.10;;
59306;SDS011;47983;53.016;-2.260;2023-05-14T12:47:35;1.40;;;0.88;;
59306;SDS011;47983;53.016;-2.260;2023-05-14T12:50:04;1.05;;;0.70;;
59306;SDS011;47983;53.016;-2.260;2023-05-14T12:52:32;1.55;;;0.93;;
59306;SDS011;47983;53.016;-2.260;2023-05-14T12:55:06;0.88;;;0.63;;
59306;SDS011;47983;53.016;-2.260;2023-05-14T13:00:06;3.40;;;0.73;;
59306;SDS011;47983;53.016;-2.260;2023-05-14T13:02:50;0.98;;;0.70;;
59306;SDS011;47983;53.016;-2.260;2023-05-14T13:05:18;1.48;;;0.80;;
59306;SDS011;47983;53.016;-2.260;2023-05-14T13:07:50;1.00;;;0.90;;
59306;SDS011;47983;53.016;-2.260;2023-05-14T13:10:18;0.82;;;0.82;;
59306;SDS011;47983;53.016;-2.260;2023-05-14T13:12:46;0.63;;;0.60;;
59306;SDS011;47983;53.016;-2.260;2023-05-14T13:15:17;1.92;;;0.70;;
59306;SDS011;47983;53.016;-2.260;2023-05-14T13:17:44;0.80;;;0.70;;
59306;SDS011;47983;53.016;-2.260;2023-05-14T13:20:14;2.65;;;0.80;;
59306;SDS011;47983;53.016;-2.260;2023-05-14T13:22:44;1.15;;;0.82;;
59306;SDS011;47983;53.016;-2.260;2023-05-14T13:25:12;2.47;;;0.80;;
59306;SDS011;47983;53.016;-2.260;2023-05-14T13:27:39;0.70;;;0.70;;
59306;SDS011;47983;53.016;-2.260;2023-05-14T13:30:07;1.33;;;0.55;;
59306;SDS011;47983;53.016;-2.260;2023-05-14T13:32:36;0.40;;;0.40;;
59306;SDS011;47983;53.016;-2.260;2023-05-14T13:35:05;2.40;;;1.20;;
59306;SDS011;47983;53.016;-2.260;2023-05-14T13:37:34;1.20;;;0.90;;
59306;SDS011;47983;53.016;-2.260;2023-05-14T13:40:02;1.20;;;1.00;;
59306;SDS011;47983;53.016;-2.260;2023-05-14T13:42:38;1.75;;;0.82;;
59306;SDS011;47983;53.016;-2.260;2023-05-14T13:45:06;1.63;;;0.90;;
59306;SDS011;47983;53.016;-2.260;2023-05-14T13:47:35;1.10;;;0.93;;
59306;SDS011;47983;53.016;-2.260;2023-05-14T13:50:02;1.10;;;1.00;;
59306;SDS011;47983;53.016;-2.260;2023-05-14T13:53:03;0.98;;;0.80;;
59306;SDS011;47983;53.016;-2.260;2023-05-14T13:55:31;2.40;;;0.95;;
59306;SDS011;47983;53.016;-2.260;2023-05-14T13:58:02;1.45;;;1.30;;
59306;SDS011;47983;53.016;-2.260;2023-05-14T14:00:34;1.67;;;1.08;;
59306;SDS011;47983;53.016;-2.260;2023-05-14T14:03:02;4.53;;;1.50;;
59306;SDS011;47983;53.016;-2.260;2023-05-14T14:05:30;1.20;;;1.10;;
59306;SDS011;47983;53.016;-2.260;2023-05-14T14:07:57;1.40;;;1.08;;
59306;SDS011;47983;53.016;-2.260;2023-05-14T14:10:39;1.35;;;0.82;;
59306;SDS011;47983;53.016;-2.260;2023-05-14T14:13:08;2.42;;;1.30;;
59306;SDS011;47983;53.016;-2.260;2023-05-14T14:15:37;1.50;;;1.10;;
59306;SDS011;47983;53.016;-2.260;2023-05-14T14:18:05;3.90;;;1.08;;
59306;SDS011;47983;53.016;-2.260;2023-05-14T14:20:33;2.08;;;0.90;;
59306;SDS011;47983;53.016;-2.260;2023-05-14T14:23:01;2.38;;;1.20;;
59306;SDS011;47983;53.016;-2.260;2023-05-14T14:25:29;1.25;;;0.90;;
59306;SDS011;47983;53.016;-2.260;2023-05-14T14:27:57;1.13;;;1.02;;
59306;SDS011;47983;53.016;-2.260;2023-05-14T14:30:25;1.45;;;1.20;;
59306;SDS011;47983;53.016;-2.260;2023-05-14T14:32:53;2.03;;;1.23;;
59306;SDS011;47983;53.016;-2.260;2023-05-14T14:35:21;2.95;;;1.00;;
59306;SDS011;47983;53.016;-2.260;2023-05-14T14:37:50;1.00;;;0.90;;
59306;SDS011;47983;53.016;-2.260;2023-05-14T14:40:24;3.20;;;1.00;;
59306;SDS011;47983;53.016;-2.260;2023-05-14T14:42:52;1.50;;;1.25;;